Scandia, Washington
Current Conditions -  °F | °C
As of 2:15 PM on Tuesday 25 Nov 2014 (Local Time) from KPWT Reporting Station
Overcast Overcast  
Wind Chill: 46°   Ceiling: 500
Heat Index: 48°   Visibility: 3mi
Dew Point: 48°   Wind: 6mph
Humidity: 100%   Direction: 30°NNE
Pressure: 30.2"   Gusts: NA
Location:  47.7571°N, 122.623°W
Report Text: KPWT 252215Z AUTO 03005KT 3SM OVC005 09/09 A3020 RMK AO1 P0001
Loading
Personal Weather Stations






























Interactive Weather Map New forecast layout! Learn more

10-Day Weather Forecast

Advertisements
Track Severe Weather on mobile